sensor_id;sensor_type;location;lat;lon;timestamp;P1;durP1;ratioP1;P2;durP2;ratioP2
8139;SDS011;4111;50.972;7.072;2023-09-19T00:00:24;4.27;;;2.00;;
8139;SDS011;4111;50.972;7.072;2023-09-19T00:02:54;4.33;;;2.03;;
8139;SDS011;4111;50.972;7.072;2023-09-19T00:05:28;4.87;;;2.30;;
8139;SDS011;4111;50.972;7.072;2023-09-19T00:07:56;3.67;;;1.80;;
8139;SDS011;4111;50.972;7.072;2023-09-19T00:10:27;8.00;;;2.10;;
8139;SDS011;4111;50.972;7.072;2023-09-19T00:13:00;3.73;;;1.77;;
8139;SDS011;4111;50.972;7.072;2023-09-19T00:15:35;4.30;;;1.90;;
8139;SDS011;4111;50.972;7.072;2023-09-19T00:18:04;4.77;;;2.03;;
8139;SDS011;4111;50.972;7.072;2023-09-19T00:20:35;6.27;;;2.23;;
8139;SDS011;4111;50.972;7.072;2023-09-19T00:23:02;7.23;;;2.00;;
8139;SDS011;4111;50.972;7.072;2023-09-19T00:25:31;4.13;;;1.83;;
8139;SDS011;4111;50.972;7.072;2023-09-19T00:28:04;7.17;;;2.10;;
8139;SDS011;4111;50.972;7.072;2023-09-19T00:30:33;5.67;;;2.07;;
8139;SDS011;4111;50.972;7.072;2023-09-19T00:33:00;4.83;;;2.00;;
8139;SDS011;4111;50.972;7.072;2023-09-19T00:35:28;4.97;;;2.10;;
8139;SDS011;4111;50.972;7.072;2023-09-19T00:37:54;6.87;;;2.63;;
8139;SDS011;4111;50.972;7.072;2023-09-19T00:40:22;4.07;;;2.03;;
8139;SDS011;4111;50.972;7.072;2023-09-19T00:42:48;6.00;;;2.30;;
8139;SDS011;4111;50.972;7.072;2023-09-19T00:45:17;4.30;;;1.87;;
8139;SDS011;4111;50.972;7.072;2023-09-19T00:47:45;4.33;;;2.07;;
8139;SDS011;4111;50.972;7.072;2023-09-19T00:50:18;4.50;;;2.17;;
8139;SDS011;4111;50.972;7.072;2023-09-19T00:52:48;7.20;;;2.10;;
8139;SDS011;4111;50.972;7.072;2023-09-19T00:55:16;4.80;;;2.10;;
8139;SDS011;4111;50.972;7.072;2023-09-19T00:57:46;5.40;;;2.17;;
8139;SDS011;4111;50.972;7.072;2023-09-19T01:00:14;4.87;;;1.77;;
8139;SDS011;4111;50.972;7.072;2023-09-19T01:02:42;4.37;;;2.00;;
8139;SDS011;4111;50.972;7.072;2023-09-19T01:05:10;3.37;;;1.70;;
8139;SDS011;4111;50.972;7.072;2023-09-19T01:07:39;3.93;;;1.97;;
8139;SDS011;4111;50.972;7.072;2023-09-19T01:10:11;5.30;;;1.73;;
8139;SDS011;4111;50.972;7.072;2023-09-19T01:15:12;4.83;;;2.17;;
8139;SDS011;4111;50.972;7.072;2023-09-19T01:17:52;4.40;;;2.20;;
8139;SDS011;4111;50.972;7.072;2023-09-19T01:20:59;3.80;;;2.10;;
8139;SDS011;4111;50.972;7.072;2023-09-19T01:23:48;5.37;;;1.93;;
8139;SDS011;4111;50.972;7.072;2023-09-19T01:26:30;7.37;;;2.40;;
8139;SDS011;4111;50.972;7.072;2023-09-19T01:32:06;4.73;;;2.20;;
8139;SDS011;4111;50.972;7.072;2023-09-19T01:34:46;5.57;;;2.30;;
8139;SDS011;4111;50.972;7.072;2023-09-19T01:37:17;5.00;;;2.07;;
8139;SDS011;4111;50.972;7.072;2023-09-19T01:39:47;5.47;;;2.13;;
8139;SDS011;4111;50.972;7.072;2023-09-19T01:45:09;6.53;;;2.40;;
8139;SDS011;4111;50.972;7.072;2023-09-19T01:47:44;4.63;;;2.00;;
8139;SDS011;4111;50.972;7.072;2023-09-19T01:50:29;5.23;;;2.10;;
8139;SDS011;4111;50.972;7.072;2023-09-19T01:53:10;4.20;;;2.00;;
8139;SDS011;4111;50.972;7.072;2023-09-19T01:55:46;5.03;;;2.60;;
8139;SDS011;4111;50.972;7.072;2023-09-19T02:00:49;4.77;;;2.13;;
8139;SDS011;4111;50.972;7.072;2023-09-19T02:03:20;6.03;;;2.50;;
8139;SDS011;4111;50.972;7.072;2023-09-19T02:05:50;3.90;;;2.17;;
8139;SDS011;4111;50.972;7.072;2023-09-19T02:08:20;6.13;;;2.83;;
8139;SDS011;4111;50.972;7.072;2023-09-19T02:10:52;7.40;;;2.10;;
8139;SDS011;4111;50.972;7.072;2023-09-19T02:13:19;5.13;;;2.07;;
8139;SDS011;4111;50.972;7.072;2023-09-19T02:15:46;6.30;;;2.00;;
8139;SDS011;4111;50.972;7.072;2023-09-19T02:18:13;6.53;;;2.40;;
8139;SDS011;4111;50.972;7.072;2023-09-19T02:20:40;10.50;;;3.00;;
8139;SDS011;4111;50.972;7.072;2023-09-19T02:23:07;11.23;;;2.50;;
8139;SDS011;4111;50.972;7.072;2023-09-19T02:25:35;8.53;;;2.47;;
8139;SDS011;4111;50.972;7.072;2023-09-19T02:28:01;7.43;;;2.57;;
8139;SDS011;4111;50.972;7.072;2023-09-19T02:30:30;6.23;;;2.30;;
8139;SDS011;4111;50.972;7.072;2023-09-19T02:32:56;6.53;;;2.30;;
8139;SDS011;4111;50.972;7.072;2023-09-19T02:35:23;9.40;;;2.60;;
8139;SDS011;4111;50.972;7.072;2023-09-19T02:37:51;5.83;;;2.67;;
8139;SDS011;4111;50.972;7.072;2023-09-19T02:40:18;8.13;;;2.73;;
8139;SDS011;4111;50.972;7.072;2023-09-19T02:42:46;6.87;;;2.23;;
8139;SDS011;4111;50.972;7.072;2023-09-19T02:45:16;8.50;;;2.87;;
8139;SDS011;4111;50.972;7.072;2023-09-19T02:47:47;8.23;;;2.93;;
8139;SDS011;4111;50.972;7.072;2023-09-19T02:50:14;6.13;;;2.50;;
8139;SDS011;4111;50.972;7.072;2023-09-19T02:52:42;5.63;;;2.90;;
8139;SDS011;4111;50.972;7.072;2023-09-19T02:55:10;6.63;;;2.90;;
8139;SDS011;4111;50.972;7.072;2023-09-19T02:57:50;7.07;;;2.20;;
8139;SDS011;4111;50.972;7.072;2023-09-19T03:00:18;6.97;;;2.50;;
8139;SDS011;4111;50.972;7.072;2023-09-19T03:02:48;9.00;;;4.43;;
8139;SDS011;4111;50.972;7.072;2023-09-19T03:05:19;10.90;;;3.20;;
8139;SDS011;4111;50.972;7.072;2023-09-19T03:07:47;7.67;;;2.80;;
8139;SDS011;4111;50.972;7.072;2023-09-19T03:10:17;9.50;;;2.77;;
8139;SDS011;4111;50.972;7.072;2023-09-19T03:12:45;7.87;;;2.37;;
8139;SDS011;4111;50.972;7.072;2023-09-19T03:15:14;8.13;;;2.40;;
8139;SDS011;4111;50.972;7.072;2023-09-19T03:17:45;6.10;;;2.23;;
8139;SDS011;4111;50.972;7.072;2023-09-19T03:20:14;9.00;;;2.53;;
8139;SDS011;4111;50.972;7.072;2023-09-19T03:22:44;5.17;;;2.40;;
8139;SDS011;4111;50.972;7.072;2023-09-19T03:25:11;10.33;;;3.17;;
8139;SDS011;4111;50.972;7.072;2023-09-19T03:27:38;5.13;;;2.57;;
8139;SDS011;4111;50.972;7.072;2023-09-19T03:30:06;7.63;;;2.50;;
8139;SDS011;4111;50.972;7.072;2023-09-19T03:32:42;9.10;;;2.40;;
8139;SDS011;4111;50.972;7.072;2023-09-19T03:35:10;9.93;;;2.77;;
8139;SDS011;4111;50.972;7.072;2023-09-19T03:37:37;10.67;;;3.13;;
8139;SDS011;4111;50.972;7.072;2023-09-19T03:40:04;9.63;;;2.70;;
8139;SDS011;4111;50.972;7.072;2023-09-19T03:42:31;9.37;;;2.83;;
8139;SDS011;4111;50.972;7.072;2023-09-19T03:44:58;9.53;;;2.50;;
8139;SDS011;4111;50.972;7.072;2023-09-19T03:47:27;9.10;;;2.77;;
8139;SDS011;4111;50.972;7.072;2023-09-19T03:49:53;10.73;;;2.47;;
8139;SDS011;4111;50.972;7.072;2023-09-19T03:52:20;9.43;;;2.50;;
8139;SDS011;4111;50.972;7.072;2023-09-19T03:54:46;6.03;;;2.20;;
8139;SDS011;4111;50.972;7.072;2023-09-19T03:57:13;8.43;;;2.70;;
8139;SDS011;4111;50.972;7.072;2023-09-19T03:59:42;10.17;;;2.47;;
8139;SDS011;4111;50.972;7.072;2023-09-19T04:02:09;9.97;;;2.17;;
8139;SDS011;4111;50.972;7.072;2023-09-19T04:04:48;8.17;;;2.83;;
8139;SDS011;4111;50.972;7.072;2023-09-19T04:07:15;8.17;;;2.87;;
8139;SDS011;4111;50.972;7.072;2023-09-19T04:09:42;9.93;;;2.67;;
8139;SDS011;4111;50.972;7.072;2023-09-19T04:12:09;6.00;;;2.40;;
8139;SDS011;4111;50.972;7.072;2023-09-19T04:14:35;11.37;;;4.40;;
8139;SDS011;4111;50.972;7.072;2023-09-19T04:17:02;7.67;;;2.53;;
8139;SDS011;4111;50.972;7.072;2023-09-19T04:19:29;7.93;;;2.83;;
8139;SDS011;4111;50.972;7.072;2023-09-19T04:21:55;9.77;;;2.70;;
8139;SDS011;4111;50.972;7.072;2023-09-19T04:24:22;9.17;;;2.33;;
8139;SDS011;4111;50.972;7.072;2023-09-19T04:26:49;10.47;;;2.50;;
8139;SDS011;4111;50.972;7.072;2023-09-19T04:29:15;6.63;;;2.70;;
8139;SDS011;4111;50.972;7.072;2023-09-19T04:31:41;12.00;;;2.70;;
8139;SDS011;4111;50.972;7.072;2023-09-19T04:34:10;10.17;;;3.30;;
8139;SDS011;4111;50.972;7.072;2023-09-19T04:36:36;8.40;;;2.77;;
8139;SDS011;4111;50.972;7.072;2023-09-19T04:39:03;5.80;;;2.20;;
8139;SDS011;4111;50.972;7.072;2023-09-19T04:41:33;8.60;;;2.60;;
8139;SDS011;4111;50.972;7.072;2023-09-19T04:44:00;9.27;;;2.60;;
8139;SDS011;4111;50.972;7.072;2023-09-19T04:46:26;7.30;;;2.47;;
8139;SDS011;4111;50.972;7.072;2023-09-19T04:48:53;12.27;;;2.67;;
8139;SDS011;4111;50.972;7.072;2023-09-19T04:51:20;11.73;;;3.23;;
8139;SDS011;4111;50.972;7.072;2023-09-19T04:53:46;12.90;;;2.97;;
8139;SDS011;4111;50.972;7.072;2023-09-19T04:56:14;9.37;;;3.30;;
8139;SDS011;4111;50.972;7.072;2023-09-19T04:58:41;6.70;;;2.30;;
8139;SDS011;4111;50.972;7.072;2023-09-19T05:01:07;9.43;;;3.03;;
8139;SDS011;4111;50.972;7.072;2023-09-19T05:03:37;6.77;;;2.70;;
8139;SDS011;4111;50.972;7.072;2023-09-19T05:06:04;7.50;;;2.60;;
8139;SDS011;4111;50.972;7.072;2023-09-19T05:08:31;10.57;;;2.60;;
8139;SDS011;4111;50.972;7.072;2023-09-19T05:10:57;11.93;;;3.17;;
8139;SDS011;4111;50.972;7.072;2023-09-19T05:13:24;8.33;;;2.93;;
8139;SDS011;4111;50.972;7.072;2023-09-19T05:15:50;6.60;;;2.50;;
8139;SDS011;4111;50.972;7.072;2023-09-19T05:18:17;7.47;;;2.80;;
8139;SDS011;4111;50.972;7.072;2023-09-19T05:20:43;9.27;;;2.70;;
8139;SDS011;4111;50.972;7.072;2023-09-19T05:23:10;13.00;;;2.77;;
8139;SDS011;4111;50.972;7.072;2023-09-19T05:25:39;14.03;;;2.93;;
8139;SDS011;4111;50.972;7.072;2023-09-19T05:28:06;9.57;;;3.23;;
8139;SDS011;4111;50.972;7.072;2023-09-19T05:30:35;5.57;;;2.40;;
8139;SDS011;4111;50.972;7.072;2023-09-19T05:33:02;8.10;;;2.93;;
8139;SDS011;4111;50.972;7.072;2023-09-19T05:35:31;6.17;;;2.60;;
8139;SDS011;4111;50.972;7.072;2023-09-19T05:37:57;8.77;;;3.00;;
8139;SDS011;4111;50.972;7.072;2023-09-19T05:40:24;9.73;;;3.03;;
8139;SDS011;4111;50.972;7.072;2023-09-19T05:42:52;6.43;;;2.40;;
8139;SDS011;4111;50.972;7.072;2023-09-19T05:45:18;10.53;;;2.80;;
8139;SDS011;4111;50.972;7.072;2023-09-19T05:47:49;5.70;;;2.47;;
8139;SDS011;4111;50.972;7.072;2023-09-19T05:50:17;12.00;;;2.40;;
8139;SDS011;4111;50.972;7.072;2023-09-19T05:52:50;9.13;;;2.80;;
8139;SDS011;4111;50.972;7.072;2023-09-19T05:55:18;7.80;;;2.50;;
8139;SDS011;4111;50.972;7.072;2023-09-19T05:57:49;9.53;;;2.40;;
8139;SDS011;4111;50.972;7.072;2023-09-19T06:00:22;9.97;;;3.17;;
8139;SDS011;4111;50.972;7.072;2023-09-19T06:02:53;7.07;;;2.87;;
8139;SDS011;4111;50.972;7.072;2023-09-19T06:05:20;11.47;;;2.67;;
8139;SDS011;4111;50.972;7.072;2023-09-19T06:07:47;13.30;;;3.13;;
8139;SDS011;4111;50.972;7.072;2023-09-19T06:10:14;9.07;;;2.83;;
8139;SDS011;4111;50.972;7.072;2023-09-19T06:12:44;7.97;;;2.80;;
8139;SDS011;4111;50.972;7.072;2023-09-19T06:15:11;11.27;;;3.17;;
8139;SDS011;4111;50.972;7.072;2023-09-19T06:17:49;8.37;;;3.10;;
8139;SDS011;4111;50.972;7.072;2023-09-19T06:20:16;6.20;;;2.73;;
8139;SDS011;4111;50.972;7.072;2023-09-19T06:22:44;5.77;;;2.30;;
8139;SDS011;4111;50.972;7.072;2023-09-19T06:25:12;8.80;;;3.50;;
8139;SDS011;4111;50.972;7.072;2023-09-19T06:27:47;10.00;;;2.77;;
8139;SDS011;4111;50.972;7.072;2023-09-19T06:30:21;7.87;;;2.50;;
8139;SDS011;4111;50.972;7.072;2023-09-19T06:32:54;6.60;;;2.60;;
8139;SDS011;4111;50.972;7.072;2023-09-19T06:35:23;6.50;;;2.83;;
8139;SDS011;4111;50.972;7.072;2023-09-19T06:37:49;10.10;;;2.60;;
8139;SDS011;4111;50.972;7.072;2023-09-19T06:40:17;10.80;;;3.07;;
8139;SDS011;4111;50.972;7.072;2023-09-19T06:42:49;8.13;;;2.90;;
8139;SDS011;4111;50.972;7.072;2023-09-19T06:45:17;9.57;;;2.73;;
8139;SDS011;4111;50.972;7.072;2023-09-19T06:47:45;10.93;;;2.50;;
8139;SDS011;4111;50.972;7.072;2023-09-19T06:50:12;7.30;;;2.40;;
8139;SDS011;4111;50.972;7.072;2023-09-19T06:52:45;9.30;;;3.07;;
8139;SDS011;4111;50.972;7.072;2023-09-19T06:55:16;5.33;;;2.47;;
8139;SDS011;4111;50.972;7.072;2023-09-19T06:57:43;10.57;;;2.93;;
8139;SDS011;4111;50.972;7.072;2023-09-19T07:00:10;8.73;;;2.60;;
8139;SDS011;4111;50.972;7.072;2023-09-19T07:03:00;10.80;;;2.67;;
8139;SDS011;4111;50.972;7.072;2023-09-19T07:05:30;5.90;;;2.53;;
8139;SDS011;4111;50.972;7.072;2023-09-19T07:08:01;7.63;;;2.70;;
8139;SDS011;4111;50.972;7.072;2023-09-19T07:10:28;9.87;;;2.90;;
8139;SDS011;4111;50.972;7.072;2023-09-19T07:13:02;9.57;;;2.57;;
8139;SDS011;4111;50.972;7.072;2023-09-19T07:15:35;6.60;;;2.90;;
8139;SDS011;4111;50.972;7.072;2023-09-19T07:18:03;11.60;;;3.80;;
8139;SDS011;4111;50.972;7.072;2023-09-19T07:20:29;11.10;;;2.93;;
8139;SDS011;4111;50.972;7.072;2023-09-19T07:22:58;7.77;;;2.87;;
8139;SDS011;4111;50.972;7.072;2023-09-19T07:25:28;4.50;;;2.47;;
8139;SDS011;4111;50.972;7.072;2023-09-19T07:27:55;8.43;;;3.30;;
8139;SDS011;4111;50.972;7.072;2023-09-19T07:30:22;7.60;;;2.70;;
8139;SDS011;4111;50.972;7.072;2023-09-19T07:32:49;8.90;;;2.70;;
8139;SDS011;4111;50.972;7.072;2023-09-19T07:35:16;11.70;;;2.70;;
8139;SDS011;4111;50.972;7.072;2023-09-19T07:37:42;11.70;;;2.87;;
8139;SDS011;4111;50.972;7.072;2023-09-19T07:40:09;11.80;;;3.00;;
8139;SDS011;4111;50.972;7.072;2023-09-19T07:42:36;7.53;;;2.50;;
8139;SDS011;4111;50.972;7.072;2023-09-19T07:45:05;7.33;;;2.60;;
8139;SDS011;4111;50.972;7.072;2023-09-19T07:47:32;8.70;;;2.47;;
8139;SDS011;4111;50.972;7.072;2023-09-19T07:49:59;7.10;;;2.53;;
8139;SDS011;4111;50.972;7.072;2023-09-19T07:52:28;9.00;;;2.63;;
8139;SDS011;4111;50.972;7.072;2023-09-19T07:54:55;8.03;;;2.20;;
8139;SDS011;4111;50.972;7.072;2023-09-19T07:57:23;9.40;;;3.20;;
8139;SDS011;4111;50.972;7.072;2023-09-19T07:59:51;11.20;;;2.97;;
8139;SDS011;4111;50.972;7.072;2023-09-19T08:02:18;6.80;;;2.67;;
8139;SDS011;4111;50.972;7.072;2023-09-19T08:04:45;8.40;;;2.87;;
8139;SDS011;4111;50.972;7.072;2023-09-19T08:07:13;10.87;;;2.90;;
8139;SDS011;4111;50.972;7.072;2023-09-19T08:09:39;8.07;;;2.77;;
8139;SDS011;4111;50.972;7.072;2023-09-19T08:12:06;5.33;;;2.50;;
8139;SDS011;4111;50.972;7.072;2023-09-19T08:14:36;10.27;;;2.83;;
8139;SDS011;4111;50.972;7.072;2023-09-19T08:17:04;8.17;;;2.73;;
8139;SDS011;4111;50.972;7.072;2023-09-19T08:19:32;11.27;;;2.73;;
8139;SDS011;4111;50.972;7.072;2023-09-19T08:21:58;10.23;;;3.10;;
8139;SDS011;4111;50.972;7.072;2023-09-19T08:24:26;6.73;;;2.93;;
8139;SDS011;4111;50.972;7.072;2023-09-19T08:26:55;7.40;;;2.97;;
8139;SDS011;4111;50.972;7.072;2023-09-19T08:29:22;8.47;;;2.63;;
8139;SDS011;4111;50.972;7.072;2023-09-19T08:31:57;13.07;;;3.40;;
8139;SDS011;4111;50.972;7.072;2023-09-19T08:34:24;10.37;;;3.03;;
8139;SDS011;4111;50.972;7.072;2023-09-19T08:36:52;7.87;;;2.83;;
8139;SDS011;4111;50.972;7.072;2023-09-19T08:39:23;6.83;;;2.60;;
8139;SDS011;4111;50.972;7.072;2023-09-19T08:41:49;8.40;;;3.07;;
8139;SDS011;4111;50.972;7.072;2023-09-19T08:44:22;8.50;;;2.60;;
8139;SDS011;4111;50.972;7.072;2023-09-19T08:46:52;8.77;;;2.87;;
8139;SDS011;4111;50.972;7.072;2023-09-19T08:52:16;8.47;;;2.70;;
8139;SDS011;4111;50.972;7.072;2023-09-19T08:54:53;6.53;;;2.53;;
8139;SDS011;4111;50.972;7.072;2023-09-19T08:57:28;8.30;;;2.47;;
8139;SDS011;4111;50.972;7.072;2023-09-19T08:59:55;7.47;;;2.70;;
8139;SDS011;4111;50.972;7.072;2023-09-19T09:02:23;11.73;;;3.07;;
8139;SDS011;4111;50.972;7.072;2023-09-19T09:04:50;10.40;;;3.10;;
8139;SDS011;4111;50.972;7.072;2023-09-19T09:07:16;11.43;;;3.30;;
8139;SDS011;4111;50.972;7.072;2023-09-19T09:09:45;12.57;;;3.10;;
8139;SDS011;4111;50.972;7.072;2023-09-19T09:12:12;9.27;;;3.00;;
8139;SDS011;4111;50.972;7.072;2023-09-19T09:14:40;10.27;;;2.57;;
8139;SDS011;4111;50.972;7.072;2023-09-19T09:17:11;8.70;;;2.70;;
8139;SDS011;4111;50.972;7.072;2023-09-19T09:19:38;11.47;;;3.37;;
8139;SDS011;4111;50.972;7.072;2023-09-19T09:22:08;7.07;;;2.60;;
8139;SDS011;4111;50.972;7.072;2023-09-19T09:24:37;8.07;;;2.67;;
8139;SDS011;4111;50.972;7.072;2023-09-19T09:27:16;9.50;;;3.03;;
8139;SDS011;4111;50.972;7.072;2023-09-19T09:29:44;9.43;;;3.40;;
8139;SDS011;4111;50.972;7.072;2023-09-19T09:32:20;7.73;;;2.50;;
8139;SDS011;4111;50.972;7.072;2023-09-19T09:34:48;6.17;;;2.57;;
8139;SDS011;4111;50.972;7.072;2023-09-19T09:37:17;10.70;;;2.53;;
8139;SDS011;4111;50.972;7.072;2023-09-19T09:40:05;6.30;;;2.47;;
8139;SDS011;4111;50.972;7.072;2023-09-19T09:42:54;7.23;;;2.33;;
8139;SDS011;4111;50.972;7.072;2023-09-19T09:45:25;7.37;;;2.67;;
8139;SDS011;4111;50.972;7.072;2023-09-19T09:47:57;7.23;;;2.67;;
8139;SDS011;4111;50.972;7.072;2023-09-19T09:50:28;7.57;;;2.70;;
8139;SDS011;4111;50.972;7.072;2023-09-19T09:52:56;11.00;;;2.60;;
8139;SDS011;4111;50.972;7.072;2023-09-19T09:58:34;7.50;;;2.50;;
8139;SDS011;4111;50.972;7.072;2023-09-19T10:01:06;5.40;;;2.10;;
8139;SDS011;4111;50.972;7.072;2023-09-19T10:03:37;5.83;;;2.00;;
8139;SDS011;4111;50.972;7.072;2023-09-19T10:06:11;7.40;;;2.37;;
8139;SDS011;4111;50.972;7.072;2023-09-19T10:11:39;5.37;;;2.40;;
8139;SDS011;4111;50.972;7.072;2023-09-19T10:14:09;8.20;;;2.57;;
8139;SDS011;4111;50.972;7.072;2023-09-19T10:16:41;7.73;;;2.37;;
8139;SDS011;4111;50.972;7.072;2023-09-19T10:19:17;7.73;;;2.30;;
8139;SDS011;4111;50.972;7.072;2023-09-19T10:21:49;10.77;;;2.60;;
8139;SDS011;4111;50.972;7.072;2023-09-19T10:24:17;5.53;;;1.93;;
8139;SDS011;4111;50.972;7.072;2023-09-19T10:26:45;4.00;;;2.30;;
8139;SDS011;4111;50.972;7.072;2023-09-19T10:29:13;4.90;;;2.40;;
8139;SDS011;4111;50.972;7.072;2023-09-19T10:31:42;4.93;;;2.17;;
8139;SDS011;4111;50.972;7.072;2023-09-19T10:34:14;5.00;;;2.10;;
8139;SDS011;4111;50.972;7.072;2023-09-19T10:36:44;5.17;;;2.13;;
8139;SDS011;4111;50.972;7.072;2023-09-19T10:39:14;6.00;;;2.57;;
8139;SDS011;4111;50.972;7.072;2023-09-19T10:41:51;5.90;;;2.13;;
8139;SDS011;4111;50.972;7.072;2023-09-19T10:44:25;3.87;;;1.93;;
8139;SDS011;4111;50.972;7.072;2023-09-19T10:46:52;3.63;;;1.90;;
8139;SDS011;4111;50.972;7.072;2023-09-19T10:49:20;4.20;;;2.20;;
8139;SDS011;4111;50.972;7.072;2023-09-19T10:51:49;4.20;;;2.20;;
8139;SDS011;4111;50.972;7.072;2023-09-19T10:54:21;4.63;;;2.13;;
8139;SDS011;4111;50.972;7.072;2023-09-19T10:56:53;5.70;;;2.40;;
8139;SDS011;4111;50.972;7.072;2023-09-19T10:59:21;6.93;;;1.90;;
8139;SDS011;4111;50.972;7.072;2023-09-19T11:01:49;5.87;;;2.10;;
8139;SDS011;4111;50.972;7.072;2023-09-19T11:04:22;7.10;;;2.60;;
8139;SDS011;4111;50.972;7.072;2023-09-19T11:07:11;4.13;;;2.03;;
8139;SDS011;4111;50.972;7.072;2023-09-19T11:12:47;4.23;;;2.47;;
8139;SDS011;4111;50.972;7.072;2023-09-19T11:15:07;5.87;;;2.30;;
8139;SDS011;4111;50.972;7.072;2023-09-19T11:17:40;8.20;;;2.20;;
8139;SDS011;4111;50.972;7.072;2023-09-19T11:30:32;7.00;;;2.37;;
8139;SDS011;4111;50.972;7.072;2023-09-19T11:33:19;4.73;;;2.57;;
8139;SDS011;4111;50.972;7.072;2023-09-19T11:43:46;5.03;;;2.53;;
8139;SDS011;4111;50.972;7.072;2023-09-19T11:46:21;3.87;;;2.10;;
8139;SDS011;4111;50.972;7.072;2023-09-19T11:48:48;5.70;;;2.67;;
8139;SDS011;4111;50.972;7.072;2023-09-19T11:53:50;5.87;;;2.47;;
8139;SDS011;4111;50.972;7.072;2023-09-19T11:56:18;5.27;;;2.30;;
8139;SDS011;4111;50.972;7.072;2023-09-19T11:58:50;6.97;;;2.57;;
8139;SDS011;4111;50.972;7.072;2023-09-19T12:01:31;5.87;;;2.40;;
8139;SDS011;4111;50.972;7.072;2023-09-19T12:04:02;6.53;;;3.10;;
8139;SDS011;4111;50.972;7.072;2023-09-19T12:06:31;8.33;;;2.60;;
8139;SDS011;4111;50.972;7.072;2023-09-19T12:09:01;6.97;;;2.60;;
8139;SDS011;4111;50.972;7.072;2023-09-19T12:11:33;3.40;;;2.00;;
8139;SDS011;4111;50.972;7.072;2023-09-19T12:14:08;5.17;;;2.00;;
8139;SDS011;4111;50.972;7.072;2023-09-19T12:16:35;5.63;;;2.37;;
8139;SDS011;4111;50.972;7.072;2023-09-19T12:19:18;4.80;;;2.30;;
8139;SDS011;4111;50.972;7.072;2023-09-19T12:22:02;4.33;;;2.07;;
8139;SDS011;4111;50.972;7.072;2023-09-19T12:24:32;5.13;;;1.93;;
8139;SDS011;4111;50.972;7.072;2023-09-19T12:27:01;4.77;;;2.03;;
8139;SDS011;4111;50.972;7.072;2023-09-19T12:29:44;5.03;;;2.10;;
8139;SDS011;4111;50.972;7.072;2023-09-19T12:32:15;6.90;;;2.20;;
8139;SDS011;4111;50.972;7.072;2023-09-19T12:34:49;4.00;;;2.00;;
8139;SDS011;4111;50.972;7.072;2023-09-19T12:37:18;4.83;;;2.13;;
8139;SDS011;4111;50.972;7.072;2023-09-19T12:39:49;6.10;;;1.83;;
8139;SDS011;4111;50.972;7.072;2023-09-19T12:42:21;4.37;;;2.13;;
8139;SDS011;4111;50.972;7.072;2023-09-19T12:44:49;2.50;;;2.10;;
8139;SDS011;4111;50.972;7.072;2023-09-19T12:47:21;7.83;;;2.03;;
8139;SDS011;4111;50.972;7.072;2023-09-19T12:50:25;3.70;;;1.90;;
8139;SDS011;4111;50.972;7.072;2023-09-19T12:52:48;5.50;;;2.30;;
8139;SDS011;4111;50.972;7.072;2023-09-19T12:55:26;4.20;;;2.47;;
8139;SDS011;4111;50.972;7.072;2023-09-19T13:00:50;4.33;;;2.10;;
8139;SDS011;4111;50.972;7.072;2023-09-19T13:05:55;3.77;;;2.20;;
8139;SDS011;4111;50.972;7.072;2023-09-19T13:08:39;5.40;;;2.03;;
8139;SDS011;4111;50.972;7.072;2023-09-19T13:11:12;6.60;;;2.40;;
8139;SDS011;4111;50.972;7.072;2023-09-19T13:13:44;3.37;;;2.03;;
8139;SDS011;4111;50.972;7.072;2023-09-19T13:16:16;4.33;;;1.73;;
8139;SDS011;4111;50.972;7.072;2023-09-19T13:18:52;4.50;;;2.20;;
8139;SDS011;4111;50.972;7.072;2023-09-19T13:21:30;5.30;;;2.13;;
8139;SDS011;4111;50.972;7.072;2023-09-19T13:24:19;4.43;;;1.85;;
8139;SDS011;4111;50.972;7.072;2023-09-19T13:26:47;4.03;;;2.00;;
8139;SDS011;4111;50.972;7.072;2023-09-19T13:29:13;6.33;;;2.10;;
8139;SDS011;4111;50.972;7.072;2023-09-19T13:31:50;5.00;;;1.77;;
8139;SDS011;4111;50.972;7.072;2023-09-19T13:34:20;4.97;;;1.93;;
8139;SDS011;4111;50.972;7.072;2023-09-19T13:36:47;3.97;;;2.03;;
8139;SDS011;4111;50.972;7.072;2023-09-19T13:39:15;5.80;;;1.63;;
8139;SDS011;4111;50.972;7.072;2023-09-19T13:41:46;5.70;;;2.17;;
8139;SDS011;4111;50.972;7.072;2023-09-19T13:44:14;4.33;;;2.13;;
8139;SDS011;4111;50.972;7.072;2023-09-19T13:46:42;5.63;;;2.25;;
8139;SDS011;4111;50.972;7.072;2023-09-19T13:49:13;3.58;;;1.60;;
8139;SDS011;4111;50.972;7.072;2023-09-19T13:51:40;3.37;;;1.77;;
8139;SDS011;4111;50.972;7.072;2023-09-19T13:54:11;5.83;;;1.67;;
8139;SDS011;4111;50.972;7.072;2023-09-19T13:56:38;2.67;;;1.80;;
8139;SDS011;4111;50.972;7.072;2023-09-19T13:59:05;5.00;;;1.98;;
8139;SDS011;4111;50.972;7.072;2023-09-19T14:01:32;3.53;;;1.60;;
8139;SDS011;4111;50.972;7.072;2023-09-19T14:03:58;4.23;;;1.80;;
8139;SDS011;4111;50.972;7.072;2023-09-19T14:06:25;4.15;;;1.52;;
8139;SDS011;4111;50.972;7.072;2023-09-19T14:08:51;6.00;;;1.63;;
8139;SDS011;4111;50.972;7.072;2023-09-19T14:11:18;3.72;;;1.50;;
8139;SDS011;4111;50.972;7.072;2023-09-19T14:13:44;3.83;;;1.70;;
8139;SDS011;4111;50.972;7.072;2023-09-19T14:16:15;3.43;;;1.60;;
8139;SDS011;4111;50.972;7.072;2023-09-19T14:18:44;4.57;;;1.50;;
8139;SDS011;4111;50.972;7.072;2023-09-19T14:21:11;3.10;;;1.55;;
8139;SDS011;4111;50.972;7.072;2023-09-19T14:23:38;5.63;;;1.87;;
8139;SDS011;4111;50.972;7.072;2023-09-19T14:26:04;4.13;;;1.80;;
8139;SDS011;4111;50.972;7.072;2023-09-19T14:28:32;3.87;;;1.57;;
8139;SDS011;4111;50.972;7.072;2023-09-19T14:31:06;3.20;;;1.40;;
8139;SDS011;4111;50.972;7.072;2023-09-19T14:33:37;3.47;;;1.57;;
8139;SDS011;4111;50.972;7.072;2023-09-19T14:36:08;5.90;;;1.87;;
8139;SDS011;4111;50.972;7.072;2023-09-19T14:38:37;6.70;;;1.60;;
8139;SDS011;4111;50.972;7.072;2023-09-19T14:41:06;2.73;;;1.43;;
8139;SDS011;4111;50.972;7.072;2023-09-19T14:43:33;2.10;;;1.33;;
8139;SDS011;4111;50.972;7.072;2023-09-19T14:46:06;2.57;;;1.70;;
8139;SDS011;4111;50.972;7.072;2023-09-19T14:48:36;2.70;;;1.53;;
8139;SDS011;4111;50.972;7.072;2023-09-19T14:51:04;1.80;;;1.53;;
8139;SDS011;4111;50.972;7.072;2023-09-19T14:53:31;2.13;;;1.47;;
8139;SDS011;4111;50.972;7.072;2023-09-19T14:56:02;5.40;;;1.47;;
8139;SDS011;4111;50.972;7.072;2023-09-19T14:58:31;5.60;;;1.70;;
8139;SDS011;4111;50.972;7.072;2023-09-19T15:01:05;2.27;;;1.37;;
8139;SDS011;4111;50.972;7.072;2023-09-19T15:03:33;2.97;;;1.40;;
8139;SDS011;4111;50.972;7.072;2023-09-19T15:06:02;3.13;;;1.70;;
8139;SDS011;4111;50.972;7.072;2023-09-19T15:08:33;3.23;;;1.50;;
8139;SDS011;4111;50.972;7.072;2023-09-19T15:11:01;3.53;;;1.47;;
8139;SDS011;4111;50.972;7.072;2023-09-19T15:13:31;5.77;;;1.60;;
8139;SDS011;4111;50.972;7.072;2023-09-19T15:16:05;5.10;;;1.30;;
8139;SDS011;4111;50.972;7.072;2023-09-19T15:18:36;1.90;;;1.47;;
8139;SDS011;4111;50.972;7.072;2023-09-19T15:21:04;2.93;;;1.30;;
8139;SDS011;4111;50.972;7.072;2023-09-19T15:23:32;3.10;;;1.30;;
8139;SDS011;4111;50.972;7.072;2023-09-19T15:26:00;6.23;;;1.23;;
8139;SDS011;4111;50.972;7.072;2023-09-19T15:28:27;2.53;;;1.57;;
8139;SDS011;4111;50.972;7.072;2023-09-19T15:33:29;3.57;;;1.47;;
8139;SDS011;4111;50.972;7.072;2023-09-19T15:38:30;3.03;;;1.60;;
8139;SDS011;4111;50.972;7.072;2023-09-19T15:40:58;2.70;;;1.30;;
8139;SDS011;4111;50.972;7.072;2023-09-19T15:43:25;3.43;;;1.20;;
8139;SDS011;4111;50.972;7.072;2023-09-19T15:45:52;2.97;;;1.30;;
8139;SDS011;4111;50.972;7.072;2023-09-19T15:48:18;3.03;;;1.23;;
8139;SDS011;4111;50.972;7.072;2023-09-19T15:50:47;2.83;;;1.23;;
8139;SDS011;4111;50.972;7.072;2023-09-19T15:53:14;1.93;;;1.30;;
8139;SDS011;4111;50.972;7.072;2023-09-19T15:55:43;4.37;;;1.63;;
8139;SDS011;4111;50.972;7.072;2023-09-19T15:58:10;2.67;;;1.77;;
8139;SDS011;4111;50.972;7.072;2023-09-19T16:00:39;3.57;;;1.20;;
8139;SDS011;4111;50.972;7.072;2023-09-19T16:03:06;2.27;;;1.30;;
8139;SDS011;4111;50.972;7.072;2023-09-19T16:05:36;2.37;;;1.30;;
8139;SDS011;4111;50.972;7.072;2023-09-19T16:08:04;3.13;;;1.30;;
8139;SDS011;4111;50.972;7.072;2023-09-19T16:10:34;5.00;;;1.60;;
8139;SDS011;4111;50.972;7.072;2023-09-19T16:13:02;3.13;;;1.37;;
8139;SDS011;4111;50.972;7.072;2023-09-19T16:15:29;2.93;;;1.47;;
8139;SDS011;4111;50.972;7.072;2023-09-19T16:17:56;3.10;;;1.70;;
8139;SDS011;4111;50.972;7.072;2023-09-19T16:20:22;4.93;;;1.70;;
8139;SDS011;4111;50.972;7.072;2023-09-19T16:22:49;2.63;;;1.50;;